sensor_id;sensor_type;location;lat;lon;timestamp;temperature;humidity
16154;DHT22;8182;55.648;13.208;2023-08-31T00:00:08;14.70;99.90
16154;DHT22;8182;55.648;13.208;2023-08-31T00:02:38;14.70;99.90
16154;DHT22;8182;55.648;13.208;2023-08-31T00:05:08;14.60;99.90
16154;DHT22;8182;55.648;13.208;2023-08-31T00:07:35;14.80;99.90
16154;DHT22;8182;55.648;13.208;2023-08-31T00:10:02;14.80;99.90
16154;DHT22;8182;55.648;13.208;2023-08-31T00:12:43;14.80;99.90
16154;DHT22;8182;55.648;13.208;2023-08-31T00:15:20;14.70;99.90
16154;DHT22;8182;55.648;13.208;2023-08-31T00:17:50;14.70;99.90
16154;DHT22;8182;55.648;13.208;2023-08-31T00:20:22;14.80;99.90
16154;DHT22;8182;55.648;13.208;2023-08-31T00:22:49;14.70;99.90
16154;DHT22;8182;55.648;13.208;2023-08-31T00:25:16;14.80;99.90
16154;DHT22;8182;55.648;13.208;2023-08-31T00:27:43;14.70;99.90
16154;DHT22;8182;55.648;13.208;2023-08-31T00:30:13;14.80;99.90
16154;DHT22;8182;55.648;13.208;2023-08-31T00:32:40;14.80;99.90
16154;DHT22;8182;55.648;13.208;2023-08-31T00:35:08;14.80;99.90
16154;DHT22;8182;55.648;13.208;2023-08-31T00:37:36;14.50;99.90
16154;DHT22;8182;55.648;13.208;2023-08-31T00:40:04;14.50;99.90
16154;DHT22;8182;55.648;13.208;2023-08-31T00:42:32;14.30;99.90
16154;DHT22;8182;55.648;13.208;2023-08-31T00:45:03;14.30;99.90
16154;DHT22;8182;55.648;13.208;2023-08-31T00:47:30;14.20;99.90
16154;DHT22;8182;55.648;13.208;2023-08-31T00:49:56;14.20;99.90
16154;DHT22;8182;55.648;13.208;2023-08-31T00:52:24;14.40;99.90
16154;DHT22;8182;55.648;13.208;2023-08-31T00:54:54;14.10;99.90
16154;DHT22;8182;55.648;13.208;2023-08-31T00:57:21;14.10;99.90
16154;DHT22;8182;55.648;13.208;2023-08-31T00:59:48;14.10;99.90
16154;DHT22;8182;55.648;13.208;2023-08-31T01:02:19;14.10;99.90
16154;DHT22;8182;55.648;13.208;2023-08-31T01:04:58;14.40;99.90
16154;DHT22;8182;55.648;13.208;2023-08-31T01:07:34;14.50;99.90
16154;DHT22;8182;55.648;13.208;2023-08-31T01:10:11;14.50;99.90
16154;DHT22;8182;55.648;13.208;2023-08-31T01:12:46;14.30;99.90
16154;DHT22;8182;55.648;13.208;2023-08-31T01:15:17;14.30;99.90
16154;DHT22;8182;55.648;13.208;2023-08-31T01:17:47;14.40;99.90
16154;DHT22;8182;55.648;13.208;2023-08-31T01:20:19;14.50;99.90
16154;DHT22;8182;55.648;13.208;2023-08-31T01:22:57;14.30;99.90
16154;DHT22;8182;55.648;13.208;2023-08-31T01:25:28;14.40;99.90
16154;DHT22;8182;55.648;13.208;2023-08-31T01:28:09;14.40;99.90
16154;DHT22;8182;55.648;13.208;2023-08-31T01:30:37;14.30;99.90
16154;DHT22;8182;55.648;13.208;2023-08-31T01:33:04;14.30;99.90
16154;DHT22;8182;55.648;13.208;2023-08-31T01:35:46;14.10;99.90
16154;DHT22;8182;55.648;13.208;2023-08-31T01:38:19;13.90;99.90
16154;DHT22;8182;55.648;13.208;2023-08-31T01:40:54;13.90;99.90
16154;DHT22;8182;55.648;13.208;2023-08-31T01:43:22;13.70;99.90
16154;DHT22;8182;55.648;13.208;2023-08-31T01:45:50;13.70;99.90
16154;DHT22;8182;55.648;13.208;2023-08-31T01:48:18;13.60;99.90
16154;DHT22;8182;55.648;13.208;2023-08-31T01:50:45;13.50;99.90
16154;DHT22;8182;55.648;13.208;2023-08-31T01:53:13;13.50;99.90
16154;DHT22;8182;55.648;13.208;2023-08-31T01:55:40;13.40;99.90
16154;DHT22;8182;55.648;13.208;2023-08-31T01:58:11;13.40;99.90
16154;DHT22;8182;55.648;13.208;2023-08-31T02:00:38;13.50;99.90
16154;DHT22;8182;55.648;13.208;2023-08-31T02:03:05;13.40;99.90
16154;DHT22;8182;55.648;13.208;2023-08-31T02:05:33;13.30;99.90
16154;DHT22;8182;55.648;13.208;2023-08-31T02:08:00;13.30;99.90
16154;DHT22;8182;55.648;13.208;2023-08-31T02:10:27;13.30;99.90
16154;DHT22;8182;55.648;13.208;2023-08-31T02:12:57;13.30;99.90
16154;DHT22;8182;55.648;13.208;2023-08-31T02:15:25;13.20;99.90
16154;DHT22;8182;55.648;13.208;2023-08-31T02:17:53;13.00;99.90
16154;DHT22;8182;55.648;13.208;2023-08-31T02:20:21;13.10;99.90
16154;DHT22;8182;55.648;13.208;2023-08-31T02:22:48;13.00;99.90
16154;DHT22;8182;55.648;13.208;2023-08-31T02:25:15;13.00;99.90
16154;DHT22;8182;55.648;13.208;2023-08-31T02:27:43;13.00;99.90
16154;DHT22;8182;55.648;13.208;2023-08-31T02:30:10;12.90;99.90
16154;DHT22;8182;55.648;13.208;2023-08-31T02:32:38;13.00;99.90
16154;DHT22;8182;55.648;13.208;2023-08-31T02:35:06;13.00;99.90
16154;DHT22;8182;55.648;13.208;2023-08-31T02:37:33;13.00;99.90
16154;DHT22;8182;55.648;13.208;2023-08-31T02:40:03;12.90;99.90
16154;DHT22;8182;55.648;13.208;2023-08-31T02:42:30;12.90;99.90
16154;DHT22;8182;55.648;13.208;2023-08-31T02:44:57;12.80;99.90
16154;DHT22;8182;55.648;13.208;2023-08-31T02:47:24;12.90;99.90
16154;DHT22;8182;55.648;13.208;2023-08-31T02:49:52;13.00;99.90
16154;DHT22;8182;55.648;13.208;2023-08-31T02:52:22;12.90;99.90
16154;DHT22;8182;55.648;13.208;2023-08-31T02:54:50;12.80;99.90
16154;DHT22;8182;55.648;13.208;2023-08-31T02:57:17;12.80;99.90
16154;DHT22;8182;55.648;13.208;2023-08-31T02:59:45;12.80;99.90
16154;DHT22;8182;55.648;13.208;2023-08-31T03:02:18;12.80;99.90
16154;DHT22;8182;55.648;13.208;2023-08-31T03:04:45;12.80;99.90
16154;DHT22;8182;55.648;13.208;2023-08-31T03:07:15;12.80;99.90
16154;DHT22;8182;55.648;13.208;2023-08-31T03:09:42;12.80;99.90
16154;DHT22;8182;55.648;13.208;2023-08-31T03:12:09;12.80;99.90
16154;DHT22;8182;55.648;13.208;2023-08-31T03:14:36;12.80;99.90
16154;DHT22;8182;55.648;13.208;2023-08-31T03:17:03;12.80;99.90
16154;DHT22;8182;55.648;13.208;2023-08-31T03:19:30;12.70;99.90
16154;DHT22;8182;55.648;13.208;2023-08-31T03:21:57;12.70;99.90
16154;DHT22;8182;55.648;13.208;2023-08-31T03:24:26;12.70;99.90
16154;DHT22;8182;55.648;13.208;2023-08-31T03:26:53;12.70;99.90
16154;DHT22;8182;55.648;13.208;2023-08-31T03:29:20;13.10;99.90
16154;DHT22;8182;55.648;13.208;2023-08-31T03:31:46;13.20;99.90
16154;DHT22;8182;55.648;13.208;2023-08-31T03:34:13;13.20;99.90
16154;DHT22;8182;55.648;13.208;2023-08-31T03:36:40;13.20;99.90
16154;DHT22;8182;55.648;13.208;2023-08-31T03:39:07;13.30;99.90
16154;DHT22;8182;55.648;13.208;2023-08-31T03:41:36;13.40;99.90
16154;DHT22;8182;55.648;13.208;2023-08-31T03:44:03;13.10;99.90
16154;DHT22;8182;55.648;13.208;2023-08-31T03:46:30;12.90;99.90
16154;DHT22;8182;55.648;13.208;2023-08-31T03:48:57;13.10;99.90
16154;DHT22;8182;55.648;13.208;2023-08-31T03:51:25;13.30;99.90
16154;DHT22;8182;55.648;13.208;2023-08-31T03:53:52;13.30;99.90
16154;DHT22;8182;55.648;13.208;2023-08-31T03:56:20;13.10;99.90
16154;DHT22;8182;55.648;13.208;2023-08-31T03:58:48;13.00;99.90
16154;DHT22;8182;55.648;13.208;2023-08-31T04:01:18;13.00;99.90
16154;DHT22;8182;55.648;13.208;2023-08-31T04:03:45;12.80;99.90
16154;DHT22;8182;55.648;13.208;2023-08-31T04:06:12;12.70;99.90
16154;DHT22;8182;55.648;13.208;2023-08-31T04:08:42;12.60;99.90
16154;DHT22;8182;55.648;13.208;2023-08-31T04:11:08;12.70;99.90
16154;DHT22;8182;55.648;13.208;2023-08-31T04:13:38;12.80;99.90
16154;DHT22;8182;55.648;13.208;2023-08-31T04:16:06;12.70;99.90
16154;DHT22;8182;55.648;13.208;2023-08-31T04:18:40;12.60;99.90
16154;DHT22;8182;55.648;13.208;2023-08-31T04:21:07;12.60;99.90
16154;DHT22;8182;55.648;13.208;2023-08-31T04:23:37;12.60;99.90
16154;DHT22;8182;55.648;13.208;2023-08-31T04:26:10;12.60;99.90
16154;DHT22;8182;55.648;13.208;2023-08-31T04:28:37;12.60;99.90
16154;DHT22;8182;55.648;13.208;2023-08-31T04:31:06;12.50;99.90
16154;DHT22;8182;55.648;13.208;2023-08-31T04:33:38;12.50;99.90
16154;DHT22;8182;55.648;13.208;2023-08-31T04:36:05;12.50;99.90
16154;DHT22;8182;55.648;13.208;2023-08-31T04:38:33;12.50;99.90
16154;DHT22;8182;55.648;13.208;2023-08-31T04:41:03;12.50;99.90
16154;DHT22;8182;55.648;13.208;2023-08-31T04:43:40;12.60;99.90
16154;DHT22;8182;55.648;13.208;2023-08-31T04:46:08;12.50;99.90
16154;DHT22;8182;55.648;13.208;2023-08-31T04:48:39;12.50;99.90
16154;DHT22;8182;55.648;13.208;2023-08-31T04:53:55;12.50;99.90
16154;DHT22;8182;55.648;13.208;2023-08-31T04:56:23;12.50;99.90
16154;DHT22;8182;55.648;13.208;2023-08-31T04:58:50;12.50;99.90
16154;DHT22;8182;55.648;13.208;2023-08-31T05:01:19;12.50;99.90
16154;DHT22;8182;55.648;13.208;2023-08-31T05:03:46;12.60;99.90
16154;DHT22;8182;55.648;13.208;2023-08-31T05:06:13;12.60;99.90
16154;DHT22;8182;55.648;13.208;2023-08-31T05:08:40;12.60;99.90
16154;DHT22;8182;55.648;13.208;2023-08-31T05:11:07;12.70;99.90
16154;DHT22;8182;55.648;13.208;2023-08-31T05:13:34;12.90;99.90
16154;DHT22;8182;55.648;13.208;2023-08-31T05:16:03;12.90;99.90
16154;DHT22;8182;55.648;13.208;2023-08-31T05:18:32;13.00;99.90
16154;DHT22;8182;55.648;13.208;2023-08-31T05:20:58;13.10;99.90
16154;DHT22;8182;55.648;13.208;2023-08-31T05:23:25;13.10;99.90
16154;DHT22;8182;55.648;13.208;2023-08-31T05:25:53;13.30;99.90
16154;DHT22;8182;55.648;13.208;2023-08-31T05:28:22;13.40;99.90
16154;DHT22;8182;55.648;13.208;2023-08-31T05:30:49;13.40;99.90
16154;DHT22;8182;55.648;13.208;2023-08-31T05:33:16;13.50;99.90
16154;DHT22;8182;55.648;13.208;2023-08-31T05:35:45;13.70;99.90
16154;DHT22;8182;55.648;13.208;2023-08-31T05:38:12;13.70;99.90
16154;DHT22;8182;55.648;13.208;2023-08-31T05:40:39;13.90;99.90
16154;DHT22;8182;55.648;13.208;2023-08-31T05:43:11;14.00;99.90
16154;DHT22;8182;55.648;13.208;2023-08-31T05:45:38;14.10;99.90
16154;DHT22;8182;55.648;13.208;2023-08-31T05:48:05;14.20;99.90
16154;DHT22;8182;55.648;13.208;2023-08-31T05:50:38;14.20;99.90
16154;DHT22;8182;55.648;13.208;2023-08-31T05:53:07;14.30;99.90
16154;DHT22;8182;55.648;13.208;2023-08-31T05:55:34;14.40;99.90
16154;DHT22;8182;55.648;13.208;2023-08-31T05:58:01;14.50;99.90
16154;DHT22;8182;55.648;13.208;2023-08-31T06:00:28;14.50;99.90
16154;DHT22;8182;55.648;13.208;2023-08-31T06:02:56;14.60;99.90
16154;DHT22;8182;55.648;13.208;2023-08-31T06:05:24;14.60;99.90
16154;DHT22;8182;55.648;13.208;2023-08-31T06:07:53;14.70;99.90
16154;DHT22;8182;55.648;13.208;2023-08-31T06:10:22;14.80;99.90
16154;DHT22;8182;55.648;13.208;2023-08-31T06:12:49;14.90;99.90
16154;DHT22;8182;55.648;13.208;2023-08-31T06:15:16;15.00;99.90
16154;DHT22;8182;55.648;13.208;2023-08-31T06:17:44;15.10;99.90
16154;DHT22;8182;55.648;13.208;2023-08-31T06:20:11;15.20;99.90
16154;DHT22;8182;55.648;13.208;2023-08-31T06:22:38;15.30;99.90
16154;DHT22;8182;55.648;13.208;2023-08-31T06:25:05;15.40;99.90
16154;DHT22;8182;55.648;13.208;2023-08-31T06:27:34;15.50;99.90
16154;DHT22;8182;55.648;13.208;2023-08-31T06:30:05;15.70;99.90
16154;DHT22;8182;55.648;13.208;2023-08-31T06:32:34;15.80;99.90
16154;DHT22;8182;55.648;13.208;2023-08-31T06:35:04;15.90;99.90
16154;DHT22;8182;55.648;13.208;2023-08-31T06:37:34;15.90;99.90
16154;DHT22;8182;55.648;13.208;2023-08-31T06:40:01;16.00;99.90
16154;DHT22;8182;55.648;13.208;2023-08-31T06:42:28;16.20;99.90
16154;DHT22;8182;55.648;13.208;2023-08-31T06:44:56;16.30;99.90
16154;DHT22;8182;55.648;13.208;2023-08-31T06:47:23;16.30;99.90
16154;DHT22;8182;55.648;13.208;2023-08-31T06:49:50;16.40;99.90
16154;DHT22;8182;55.648;13.208;2023-08-31T06:52:18;16.50;99.90
16154;DHT22;8182;55.648;13.208;2023-08-31T06:54:46;16.60;99.90
16154;DHT22;8182;55.648;13.208;2023-08-31T06:57:13;16.90;99.90
16154;DHT22;8182;55.648;13.208;2023-08-31T06:59:40;16.80;99.90
16154;DHT22;8182;55.648;13.208;2023-08-31T07:02:08;16.70;99.90
16154;DHT22;8182;55.648;13.208;2023-08-31T07:04:35;16.70;99.90
16154;DHT22;8182;55.648;13.208;2023-08-31T07:07:02;16.70;99.90
16154;DHT22;8182;55.648;13.208;2023-08-31T07:09:34;16.80;99.90
16154;DHT22;8182;55.648;13.208;2023-08-31T07:12:01;16.80;99.90
16154;DHT22;8182;55.648;13.208;2023-08-31T07:14:28;16.90;99.90
16154;DHT22;8182;55.648;13.208;2023-08-31T07:16:57;16.90;99.90
16154;DHT22;8182;55.648;13.208;2023-08-31T07:19:26;16.90;99.90
16154;DHT22;8182;55.648;13.208;2023-08-31T07:21:53;16.90;99.90
16154;DHT22;8182;55.648;13.208;2023-08-31T07:24:22;17.00;99.90
16154;DHT22;8182;55.648;13.208;2023-08-31T07:26:56;17.00;99.90
16154;DHT22;8182;55.648;13.208;2023-08-31T07:29:23;17.00;99.90
16154;DHT22;8182;55.648;13.208;2023-08-31T07:32:00;16.80;99.90
16154;DHT22;8182;55.648;13.208;2023-08-31T07:34:33;16.80;99.90
16154;DHT22;8182;55.648;13.208;2023-08-31T07:37:04;16.70;99.90
16154;DHT22;8182;55.648;13.208;2023-08-31T07:39:31;16.80;99.90
16154;DHT22;8182;55.648;13.208;2023-08-31T07:41:58;16.80;99.90
16154;DHT22;8182;55.648;13.208;2023-08-31T07:44:25;16.80;99.90
16154;DHT22;8182;55.648;13.208;2023-08-31T07:46:52;16.90;99.90
16154;DHT22;8182;55.648;13.208;2023-08-31T07:49:19;17.00;99.90
16154;DHT22;8182;55.648;13.208;2023-08-31T07:51:47;17.10;99.90
16154;DHT22;8182;55.648;13.208;2023-08-31T07:54:19;17.20;99.90
16154;DHT22;8182;55.648;13.208;2023-08-31T07:56:46;17.30;99.90
16154;DHT22;8182;55.648;13.208;2023-08-31T07:59:13;17.40;99.90
16154;DHT22;8182;55.648;13.208;2023-08-31T08:01:40;17.40;99.90
16154;DHT22;8182;55.648;13.208;2023-08-31T08:04:07;17.40;99.90
16154;DHT22;8182;55.648;13.208;2023-08-31T08:06:34;17.50;99.90
16154;DHT22;8182;55.648;13.208;2023-08-31T08:09:02;17.40;99.90
16154;DHT22;8182;55.648;13.208;2023-08-31T08:11:48;17.50;99.90
16154;DHT22;8182;55.648;13.208;2023-08-31T08:14:15;17.80;99.90
16154;DHT22;8182;55.648;13.208;2023-08-31T08:16:45;18.00;99.90
16154;DHT22;8182;55.648;13.208;2023-08-31T08:19:20;18.20;99.90
16154;DHT22;8182;55.648;13.208;2023-08-31T08:21:48;18.20;99.90
16154;DHT22;8182;55.648;13.208;2023-08-31T08:24:16;18.40;99.90
16154;DHT22;8182;55.648;13.208;2023-08-31T08:26:43;18.50;99.90
16154;DHT22;8182;55.648;13.208;2023-08-31T08:29:10;18.50;99.90
16154;DHT22;8182;55.648;13.208;2023-08-31T08:31:37;18.70;99.90
16154;DHT22;8182;55.648;13.208;2023-08-31T08:34:04;18.90;99.90
16154;DHT22;8182;55.648;13.208;2023-08-31T08:36:31;18.70;99.90
16154;DHT22;8182;55.648;13.208;2023-08-31T08:38:58;18.70;99.90
16154;DHT22;8182;55.648;13.208;2023-08-31T08:41:29;18.50;99.90
16154;DHT22;8182;55.648;13.208;2023-08-31T08:44:01;18.50;99.90
16154;DHT22;8182;55.648;13.208;2023-08-31T08:46:33;18.60;99.90
16154;DHT22;8182;55.648;13.208;2023-08-31T08:49:03;18.60;99.90
16154;DHT22;8182;55.648;13.208;2023-08-31T08:51:31;18.50;99.90
16154;DHT22;8182;55.648;13.208;2023-08-31T08:53:59;18.20;99.90
16154;DHT22;8182;55.648;13.208;2023-08-31T08:56:28;18.20;99.90
16154;DHT22;8182;55.648;13.208;2023-08-31T08:58:55;18.20;99.90
16154;DHT22;8182;55.648;13.208;2023-08-31T09:01:23;18.10;99.90
16154;DHT22;8182;55.648;13.208;2023-08-31T09:03:53;18.10;99.90
16154;DHT22;8182;55.648;13.208;2023-08-31T09:06:20;18.20;99.90
16154;DHT22;8182;55.648;13.208;2023-08-31T09:08:55;18.20;99.90
16154;DHT22;8182;55.648;13.208;2023-08-31T09:11:23;18.00;99.90
16154;DHT22;8182;55.648;13.208;2023-08-31T09:13:52;18.10;99.90
16154;DHT22;8182;55.648;13.208;2023-08-31T09:16:24;18.00;99.90
16154;DHT22;8182;55.648;13.208;2023-08-31T09:18:51;18.00;99.90
16154;DHT22;8182;55.648;13.208;2023-08-31T09:21:18;18.00;99.90
16154;DHT22;8182;55.648;13.208;2023-08-31T09:23:48;17.90;99.90
16154;DHT22;8182;55.648;13.208;2023-08-31T09:26:22;18.00;99.90
16154;DHT22;8182;55.648;13.208;2023-08-31T09:28:50;17.80;99.90
16154;DHT22;8182;55.648;13.208;2023-08-31T09:31:18;17.20;99.90
16154;DHT22;8182;55.648;13.208;2023-08-31T09:33:50;17.00;99.90
16154;DHT22;8182;55.648;13.208;2023-08-31T09:36:18;16.70;99.90
16154;DHT22;8182;55.648;13.208;2023-08-31T09:38:45;16.40;99.90
16154;DHT22;8182;55.648;13.208;2023-08-31T09:41:12;16.10;99.90
16154;DHT22;8182;55.648;13.208;2023-08-31T09:43:40;15.80;99.90
16154;DHT22;8182;55.648;13.208;2023-08-31T09:46:09;16.00;99.90
16154;DHT22;8182;55.648;13.208;2023-08-31T09:48:40;16.10;99.90
16154;DHT22;8182;55.648;13.208;2023-08-31T09:51:10;15.90;99.90
16154;DHT22;8182;55.648;13.208;2023-08-31T09:53:37;16.00;99.90
16154;DHT22;8182;55.648;13.208;2023-08-31T09:56:05;15.90;99.90
16154;DHT22;8182;55.648;13.208;2023-08-31T09:58:32;15.90;99.90
16154;DHT22;8182;55.648;13.208;2023-08-31T10:01:00;16.00;99.90
16154;DHT22;8182;55.648;13.208;2023-08-31T10:03:29;16.00;99.90
16154;DHT22;8182;55.648;13.208;2023-08-31T10:05:57;16.00;99.90
16154;DHT22;8182;55.648;13.208;2023-08-31T10:08:27;16.00;99.90
16154;DHT22;8182;55.648;13.208;2023-08-31T10:10:59;16.00;99.90
16154;DHT22;8182;55.648;13.208;2023-08-31T10:13:27;15.90;99.90
16154;DHT22;8182;55.648;13.208;2023-08-31T10:15:57;15.70;99.90
16154;DHT22;8182;55.648;13.208;2023-08-31T10:18:25;15.60;99.90
16154;DHT22;8182;55.648;13.208;2023-08-31T10:20:53;15.60;99.90
16154;DHT22;8182;55.648;13.208;2023-08-31T10:23:20;15.50;99.90
16154;DHT22;8182;55.648;13.208;2023-08-31T10:26:01;15.40;99.90
16154;DHT22;8182;55.648;13.208;2023-08-31T10:28:29;15.50;99.90
16154;DHT22;8182;55.648;13.208;2023-08-31T10:31:05;15.40;99.90
16154;DHT22;8182;55.648;13.208;2023-08-31T10:33:39;15.40;99.90
16154;DHT22;8182;55.648;13.208;2023-08-31T10:36:12;15.40;99.90
16154;DHT22;8182;55.648;13.208;2023-08-31T10:38:41;15.60;99.90
16154;DHT22;8182;55.648;13.208;2023-08-31T10:41:19;15.60;99.90
16154;DHT22;8182;55.648;13.208;2023-08-31T10:43:48;15.70;99.90
16154;DHT22;8182;55.648;13.208;2023-08-31T10:46:26;15.80;99.90
16154;DHT22;8182;55.648;13.208;2023-08-31T10:48:55;15.90;99.90
16154;DHT22;8182;55.648;13.208;2023-08-31T10:51:25;15.90;99.90
16154;DHT22;8182;55.648;13.208;2023-08-31T10:54:04;15.90;99.90
16154;DHT22;8182;55.648;13.208;2023-08-31T10:56:31;15.90;99.90
16154;DHT22;8182;55.648;13.208;2023-08-31T10:58:59;15.90;99.90
16154;DHT22;8182;55.648;13.208;2023-08-31T11:01:52;15.90;99.90
16154;DHT22;8182;55.648;13.208;2023-08-31T11:04:19;16.00;99.90
16154;DHT22;8182;55.648;13.208;2023-08-31T11:06:48;16.00;99.90
16154;DHT22;8182;55.648;13.208;2023-08-31T11:09:19;16.10;99.90
16154;DHT22;8182;55.648;13.208;2023-08-31T11:11:47;16.10;99.90
16154;DHT22;8182;55.648;13.208;2023-08-31T11:14:15;16.20;99.90
16154;DHT22;8182;55.648;13.208;2023-08-31T11:16:43;16.20;99.90
16154;DHT22;8182;55.648;13.208;2023-08-31T11:19:10;16.30;99.90
16154;DHT22;8182;55.648;13.208;2023-08-31T11:21:37;16.30;99.90
16154;DHT22;8182;55.648;13.208;2023-08-31T11:24:07;16.30;99.90
16154;DHT22;8182;55.648;13.208;2023-08-31T11:26:34;16.30;99.90
16154;DHT22;8182;55.648;13.208;2023-08-31T11:29:06;16.20;99.90
16154;DHT22;8182;55.648;13.208;2023-08-31T11:31:37;16.30;99.90
16154;DHT22;8182;55.648;13.208;2023-08-31T11:34:04;16.30;99.90
16154;DHT22;8182;55.648;13.208;2023-08-31T11:36:31;16.30;99.90
16154;DHT22;8182;55.648;13.208;2023-08-31T11:38:58;16.30;99.90
16154;DHT22;8182;55.648;13.208;2023-08-31T11:41:32;16.30;99.90
16154;DHT22;8182;55.648;13.208;2023-08-31T11:44:03;16.30;99.90
16154;DHT22;8182;55.648;13.208;2023-08-31T11:46:31;16.30;99.90
16154;DHT22;8182;55.648;13.208;2023-08-31T11:49:01;16.20;99.90
16154;DHT22;8182;55.648;13.208;2023-08-31T11:51:32;16.20;99.90
16154;DHT22;8182;55.648;13.208;2023-08-31T11:54:00;16.30;99.90
16154;DHT22;8182;55.648;13.208;2023-08-31T11:56:40;16.30;99.90
16154;DHT22;8182;55.648;13.208;2023-08-31T11:59:09;16.30;99.90
16154;DHT22;8182;55.648;13.208;2023-08-31T12:01:38;16.40;99.90
16154;DHT22;8182;55.648;13.208;2023-08-31T12:04:16;16.40;99.90
16154;DHT22;8182;55.648;13.208;2023-08-31T12:06:46;16.40;99.90
16154;DHT22;8182;55.648;13.208;2023-08-31T12:09:14;16.50;99.90
16154;DHT22;8182;55.648;13.208;2023-08-31T12:11:50;16.60;99.90
16154;DHT22;8182;55.648;13.208;2023-08-31T12:14:19;16.60;99.90
16154;DHT22;8182;55.648;13.208;2023-08-31T12:16:47;16.60;99.90
16154;DHT22;8182;55.648;13.208;2023-08-31T12:19:14;16.60;99.90
16154;DHT22;8182;55.648;13.208;2023-08-31T12:21:42;16.50;99.90
16154;DHT22;8182;55.648;13.208;2023-08-31T12:24:09;16.50;99.90
16154;DHT22;8182;55.648;13.208;2023-08-31T12:26:36;16.30;99.90
16154;DHT22;8182;55.648;13.208;2023-08-31T12:29:05;16.30;99.90
16154;DHT22;8182;55.648;13.208;2023-08-31T12:31:32;16.40;99.90
16154;DHT22;8182;55.648;13.208;2023-08-31T12:33:59;16.30;99.90
16154;DHT22;8182;55.648;13.208;2023-08-31T12:36:30;16.50;99.90
16154;DHT22;8182;55.648;13.208;2023-08-31T12:38:57;16.50;99.90
16154;DHT22;8182;55.648;13.208;2023-08-31T12:41:27;16.60;99.90
16154;DHT22;8182;55.648;13.208;2023-08-31T12:43:54;16.50;99.90
16154;DHT22;8182;55.648;13.208;2023-08-31T12:46:23;16.30;99.90
16154;DHT22;8182;55.648;13.208;2023-08-31T12:48:54;16.30;99.90
16154;DHT22;8182;55.648;13.208;2023-08-31T12:51:21;16.30;99.90
16154;DHT22;8182;55.648;13.208;2023-08-31T12:53:48;16.20;99.90
16154;DHT22;8182;55.648;13.208;2023-08-31T12:56:15;16.30;99.90
16154;DHT22;8182;55.648;13.208;2023-08-31T12:58:54;16.30;99.90
16154;DHT22;8182;55.648;13.208;2023-08-31T13:01:22;16.40;99.90
16154;DHT22;8182;55.648;13.208;2023-08-31T13:03:49;16.30;99.90
16154;DHT22;8182;55.648;13.208;2023-08-31T13:06:18;16.20;99.90
16154;DHT22;8182;55.648;13.208;2023-08-31T13:08:45;16.20;99.90
16154;DHT22;8182;55.648;13.208;2023-08-31T13:11:12;16.20;99.90
16154;DHT22;8182;55.648;13.208;2023-08-31T13:13:39;16.10;99.90
16154;DHT22;8182;55.648;13.208;2023-08-31T13:16:06;16.10;99.90
16154;DHT22;8182;55.648;13.208;2023-08-31T13:18:34;16.20;99.90
16154;DHT22;8182;55.648;13.208;2023-08-31T13:21:04;16.10;99.90
16154;DHT22;8182;55.648;13.208;2023-08-31T13:23:31;16.10;99.90
16154;DHT22;8182;55.648;13.208;2023-08-31T13:25:58;16.00;99.90
16154;DHT22;8182;55.648;13.208;2023-08-31T13:28:25;16.00;99.90
16154;DHT22;8182;55.648;13.208;2023-08-31T13:30:55;16.00;99.90
16154;DHT22;8182;55.648;13.208;2023-08-31T13:33:23;16.00;99.90
16154;DHT22;8182;55.648;13.208;2023-08-31T13:35:51;15.90;99.90
16154;DHT22;8182;55.648;13.208;2023-08-31T13:38:18;16.00;99.90
16154;DHT22;8182;55.648;13.208;2023-08-31T13:40:45;16.00;99.90
16154;DHT22;8182;55.648;13.208;2023-08-31T13:43:14;16.00;99.90
16154;DHT22;8182;55.648;13.208;2023-08-31T13:45:41;16.00;99.90
16154;DHT22;8182;55.648;13.208;2023-08-31T13:48:11;16.10;99.90
16154;DHT22;8182;55.648;13.208;2023-08-31T13:50:38;16.20;99.90
16154;DHT22;8182;55.648;13.208;2023-08-31T13:53:06;16.20;99.90
16154;DHT22;8182;55.648;13.208;2023-08-31T13:55:33;16.10;99.90
16154;DHT22;8182;55.648;13.208;2023-08-31T13:58:04;16.20;99.90
16154;DHT22;8182;55.648;13.208;2023-08-31T14:00:32;16.20;99.90
16154;DHT22;8182;55.648;13.208;2023-08-31T14:02:59;16.10;99.90
16154;DHT22;8182;55.648;13.208;2023-08-31T14:05:29;16.00;99.90
16154;DHT22;8182;55.648;13.208;2023-08-31T14:07:57;16.10;99.90
16154;DHT22;8182;55.648;13.208;2023-08-31T14:10:28;16.00;99.90
16154;DHT22;8182;55.648;13.208;2023-08-31T14:13:00;16.00;99.90
16154;DHT22;8182;55.648;13.208;2023-08-31T14:15:27;16.00;99.90
16154;DHT22;8182;55.648;13.208;2023-08-31T14:17:54;15.90;99.90
16154;DHT22;8182;55.648;13.208;2023-08-31T14:20:21;15.80;99.90
16154;DHT22;8182;55.648;13.208;2023-08-31T14:22:48;15.80;99.90
16154;DHT22;8182;55.648;13.208;2023-08-31T14:25:18;15.90;99.90
16154;DHT22;8182;55.648;13.208;2023-08-31T14:27:49;15.80;99.90
16154;DHT22;8182;55.648;13.208;2023-08-31T14:30:16;15.70;99.90
16154;DHT22;8182;55.648;13.208;2023-08-31T14:32:43;15.80;99.90
16154;DHT22;8182;55.648;13.208;2023-08-31T14:35:09;15.80;99.90
16154;DHT22;8182;55.648;13.208;2023-08-31T14:37:37;15.80;99.90
16154;DHT22;8182;55.648;13.208;2023-08-31T14:40:05;15.80;99.90
16154;DHT22;8182;55.648;13.208;2023-08-31T14:42:33;15.80;99.90
16154;DHT22;8182;55.648;13.208;2023-08-31T14:45:01;15.80;99.90
16154;DHT22;8182;55.648;13.208;2023-08-31T14:47:29;15.80;99.90
16154;DHT22;8182;55.648;13.208;2023-08-31T14:49:56;15.80;99.90
16154;DHT22;8182;55.648;13.208;2023-08-31T14:52:23;15.80;99.90
16154;DHT22;8182;55.648;13.208;2023-08-31T14:54:53;15.90;99.90
16154;DHT22;8182;55.648;13.208;2023-08-31T14:57:22;15.80;99.90
16154;DHT22;8182;55.648;13.208;2023-08-31T14:59:52;15.80;99.90
16154;DHT22;8182;55.648;13.208;2023-08-31T15:02:20;15.90;99.90
16154;DHT22;8182;55.648;13.208;2023-08-31T15:04:48;15.80;99.90
16154;DHT22;8182;55.648;13.208;2023-08-31T15:07:16;15.80;99.90
16154;DHT22;8182;55.648;13.208;2023-08-31T15:09:43;15.80;99.90
16154;DHT22;8182;55.648;13.208;2023-08-31T15:12:10;15.70;99.90
16154;DHT22;8182;55.648;13.208;2023-08-31T15:14:37;15.80;99.90
16154;DHT22;8182;55.648;13.208;2023-08-31T15:17:04;15.80;99.90
16154;DHT22;8182;55.648;13.208;2023-08-31T15:19:32;15.80;99.90
16154;DHT22;8182;55.648;13.208;2023-08-31T15:21:59;15.80;99.90
16154;DHT22;8182;55.648;13.208;2023-08-31T15:24:26;15.80;99.90
16154;DHT22;8182;55.648;13.208;2023-08-31T15:26:53;15.80;99.90
16154;DHT22;8182;55.648;13.208;2023-08-31T15:29:21;15.80;99.90
16154;DHT22;8182;55.648;13.208;2023-08-31T15:31:48;15.90;99.90
16154;DHT22;8182;55.648;13.208;2023-08-31T15:34:14;16.00;99.90
16154;DHT22;8182;55.648;13.208;2023-08-31T15:36:43;16.00;99.90
16154;DHT22;8182;55.648;13.208;2023-08-31T15:39:09;16.00;99.90
16154;DHT22;8182;55.648;13.208;2023-08-31T15:41:38;16.00;99.90